Nearby METAR Reports

 

EGQL - Leuchars Raf, United Kingdom
Distance from station: SW 11mi, 17km
Updated: 17/01/2018 02:48
Clear
Clear
 Wind from W
Wind: W 20 mph , 31 km/h
Temperature: -1°C
Wind Chill: -8°C
Dew Point: -2°C
Humidity: 93%
Barometer: 984 hPa
Summary: Clear
Visibility: greater than 7 miles , 10 km
2018/01/17 02:48 EGQL 170248Z 26017KT CAVOK M01/M02 Q0984 BLU
EGPN - Dundee/Riverside, United Kingdom
Distance from station: WSW 13mi, 20km
Updated: 16/01/2018 20:20
NOT Current
Few Clouds
Few Clouds
 Wind from W
Wind: W 12 mph , 19 km/h
Temperature: 1°C
Wind Chill: -4°C
Dew Point: 0°C
Humidity: 93%
Barometer: 980 hPa
Clouds: Few Clouds
Visibility: 6 miles , 10 km
Cloud details: Few Clouds 305 m
2018/01/16 20:20 EGPN 162020Z 26010KT 9999 FEW010 01/M00 Q0980
 
EGPH - Edinburgh Airpor, United Kingdom
Distance from station: SSW 46mi, 74km
Updated: 17/01/2018 02:50
Few Clouds
Few Clouds
 Wind from WSW
Wind: WSW 12 mph , 19 km/h
Temperature: 0°C
Wind Chill: -5°C
Dew Point: -1°C
Humidity: 93%
Barometer: 986 hPa
Clouds: Few Clouds
Visibility: 6 miles , 10 km
Cloud details: Few Clouds 1128 m
2018/01/17 02:50 EGPH 170250Z 25010KT 9999 FEW037 M00/M01 Q0986
EGPD - Aberdeen/Dyce, United Kingdom
Distance from station: NNE 51mi, 82km
Updated: 17/01/2018 02:50
Clear
Clear
 Wind from WSW
Wind: WSW 10 mph , 17 km/h
Temperature: 0°C
Wind Chill: -4°C
Dew Point: -5°C
Humidity: 69%
Barometer: 982 hPa
Clouds: Clear
Visibility: 6 miles , 10 km
2018/01/17 02:50 EGPD 170250Z AUTO 25009KT 9999 NCD M00/M05 Q0982 NOSIG